createdAt,value
2022-08-21T05:46:46.604Z,106
2022-08-21T05:55:27.421Z,113
2022-08-21T05:57:06.581Z,98
2022-08-21T06:00:06.149Z,84
2022-08-21T06:04:10.666Z,93
2022-08-21T06:09:56.721Z,78
2022-08-21T06:11:29.055Z,80
2022-08-21T06:12:38.445Z,87
2022-08-21T06:13:42.946Z,86
2022-08-21T06:15:37.710Z,82
2022-08-21T06:17:48.406Z,75
2022-08-21T06:19:35.013Z,76
2022-08-21T06:21:12.077Z,75
2022-08-21T06:22:20.953Z,81
2022-08-21T06:23:45.070Z,78
2022-08-21T06:24:53.895Z,80
2022-08-21T06:25:58.350Z,78
2022-08-21T06:27:02.833Z,78
2022-08-21T06:28:07.455Z,77
2022-08-21T06:29:13.198Z,77
2022-08-21T06:30:20.277Z,73
2022-08-21T06:31:24.686Z,76
2022-08-21T06:32:29.213Z,74
2022-08-21T06:33:37.938Z,72
2022-08-21T06:34:43.393Z,69
2022-08-21T06:36:04.377Z,72
2022-08-21T06:37:10.543Z,76
2022-08-21T06:38:14.618Z,76
2022-08-21T06:39:25.434Z,74
2022-08-21T06:40:24.125Z,74
2022-08-21T06:41:28.397Z,75
2022-08-21T06:42:43.058Z,72
2022-08-21T06:43:47.206Z,71
2022-08-21T06:44:51.701Z,73
2022-08-21T06:45:56.267Z,68
2022-08-21T06:47:00.633Z,72
2022-08-21T06:48:04.937Z,73
2022-08-21T06:49:09.465Z,72
2022-08-21T06:50:19.907Z,69
2022-08-21T06:51:24.426Z,71
2022-08-21T06:52:29.185Z,74
2022-08-21T06:53:33.657Z,70
2022-08-21T06:54:37.901Z,71
2022-08-21T06:55:42.313Z,74
2022-08-21T06:56:46.917Z,69
2022-08-21T06:57:52.537Z,73
2022-08-21T06:58:55.882Z,80
2022-08-21T07:00:00.277Z,85
2022-08-21T07:01:11.064Z,81
2022-08-21T07:02:18.045Z,78
2022-08-21T07:03:23.101Z,80
2022-08-21T07:04:27.821Z,82
2022-08-21T07:05:32.165Z,82
2022-08-21T07:06:38.885Z,88
2022-08-21T07:07:43.225Z,90
2022-08-21T07:09:50.705Z,86
2022-08-21T07:10:55.061Z,91
2022-08-21T07:11:59.961Z,94
2022-08-21T07:13:05.033Z,88
2022-08-21T07:14:09.537Z,91
2022-08-21T07:15:14.437Z,91
2022-08-21T07:16:19.397Z,93
2022-08-21T07:17:24.026Z,89
2022-08-21T07:18:28.713Z,90
2022-08-21T07:19:33.129Z,91
2022-08-21T07:20:37.501Z,86
2022-08-21T07:21:43.689Z,85
2022-08-21T07:22:48.940Z,76
2022-08-21T07:23:53.289Z,83
2022-08-21T07:24:57.744Z,84
2022-08-21T07:26:02.276Z,79
2022-08-21T07:27:10.362Z,90
2022-08-21T07:28:14.886Z,88
2022-08-21T07:29:22.585Z,83
2022-08-21T07:30:26.941Z,77
2022-08-21T07:31:31.637Z,67
2022-08-21T07:32:35.757Z,81
2022-08-21T07:33:40.509Z,91
2022-08-21T07:34:45.389Z,87
2022-08-21T07:35:53.965Z,87
2022-08-21T07:36:58.781Z,83
2022-08-21T07:38:03.365Z,83
2022-08-21T07:39:07.729Z,83
2022-08-21T07:40:14.926Z,85
2022-08-21T07:41:19.853Z,81
2022-08-21T07:42:24.645Z,84
2022-08-21T07:43:28.941Z,80
2022-08-21T07:44:33.973Z,84
2022-08-21T07:45:38.164Z,99
2022-08-21T07:46:42.805Z,90
2022-08-21T07:47:47.209Z,99
2022-08-21T07:48:51.845Z,96
2022-08-21T07:49:57.615Z,91
2022-08-21T07:51:02.269Z,89
2022-08-21T07:52:09.157Z,95
2022-08-21T07:53:13.785Z,93
2022-08-21T07:54:33.798Z,92
2022-08-21T07:55:26.233Z,87
2022-08-21T07:56:33.509Z,85
2022-08-21T07:58:45.709Z,80
2022-08-21T07:59:50.076Z,79
2022-08-21T08:00:54.504Z,89
2022-08-21T08:01:58.588Z,94
2022-08-21T08:03:04.474Z,86
2022-08-21T08:04:10.304Z,82
2022-08-21T08:05:14.941Z,78
2022-08-21T08:06:19.313Z,82
2022-08-21T08:08:29.621Z,78
2022-08-21T08:09:34.216Z,81
2022-08-21T08:10:39.453Z,78
2022-08-21T08:11:44.001Z,76
2022-08-21T08:12:48.265Z,64
2022-08-21T08:13:52.564Z,66
2022-08-21T08:14:57.469Z,61
2022-08-21T08:16:06.882Z,68
2022-08-21T08:17:12.682Z,74
2022-08-21T08:19:20.684Z,80
2022-08-21T08:20:25.178Z,77
2022-08-21T08:21:32.468Z,75
2022-08-21T08:22:36.897Z,70
2022-08-21T08:23:42.164Z,66
2022-08-21T08:24:46.897Z,65
2022-08-21T08:25:51.637Z,69
2022-08-21T08:26:56.705Z,68
2022-08-21T08:28:01.066Z,70
2022-08-21T08:29:05.921Z,68
2022-08-21T08:30:10.569Z,77
2022-08-21T08:31:14.893Z,64
2022-08-21T08:32:19.162Z,66
2022-08-21T08:33:23.505Z,66
2022-08-21T08:34:29.345Z,70
2022-08-21T08:35:33.904Z,62
2022-08-21T08:36:38.664Z,60
2022-08-21T08:38:47.160Z,66
2022-08-21T08:39:53.411Z,63
2022-08-21T08:40:58.296Z,69
2022-08-21T08:42:32.446Z,66
2022-08-21T08:43:14.385Z,64
2022-08-21T08:44:18.918Z,64
2022-08-21T08:45:25.681Z,68
2022-08-21T08:46:29.985Z,72
2022-08-21T08:47:46.508Z,75
2022-08-21T08:48:58.732Z,69
2022-08-21T08:50:08.388Z,69
2022-08-21T08:51:13.218Z,73
2022-08-21T08:52:19.425Z,68
2022-08-21T08:53:28.828Z,66
2022-08-21T08:54:36.056Z,80
2022-08-21T08:55:43.240Z,72
2022-08-21T08:56:47.624Z,71
2022-08-21T08:57:52.424Z,71
2022-08-21T08:58:56.840Z,70
2022-08-21T09:00:06.241Z,72
2022-08-21T09:01:10.947Z,72
2022-08-21T09:02:18.316Z,69
2022-08-21T09:03:23.025Z,68
2022-08-21T09:04:31.405Z,71
2022-08-21T09:05:35.785Z,76
2022-08-21T09:06:47.437Z,78
2022-08-21T09:08:01.948Z,73
2022-08-21T09:09:16.696Z,78
2022-08-21T09:10:28.000Z,73
2022-08-21T09:11:34.601Z,81
2022-08-21T09:12:39.757Z,97
2022-08-21T09:13:52.333Z,89
2022-08-21T09:14:56.909Z,85
2022-08-21T09:16:06.588Z,87
2022-08-21T09:17:16.341Z,94
2022-08-21T09:18:28.416Z,98
2022-08-21T09:19:38.117Z,97
2022-08-21T09:20:52.517Z,99
2022-08-21T09:22:04.565Z,90
2022-08-21T09:23:16.664Z,89
2022-08-21T09:24:29.189Z,90
2022-08-21T09:25:39.061Z,92
2022-08-21T09:26:48.958Z,84
2022-08-21T09:28:03.552Z,95
2022-08-21T09:29:10.160Z,94
2022-08-21T09:30:14.444Z,92
2022-08-21T09:31:19.749Z,93
2022-08-21T09:32:37.357Z,98
2022-08-21T09:33:31.329Z,92
2022-08-21T09:34:37.292Z,93
2022-08-21T09:35:42.016Z,91
2022-08-21T09:36:52.808Z,87
2022-08-21T09:37:57.376Z,91
2022-08-21T09:39:04.860Z,91
2022-08-21T09:40:09.525Z,94
2022-08-21T09:41:21.777Z,84
2022-08-21T09:42:29.164Z,84
2022-08-21T09:43:38.245Z,81
2022-08-21T09:44:44.976Z,77
2022-08-21T09:45:49.595Z,78
2022-08-21T09:47:03.964Z,75
2022-08-21T09:48:08.512Z,79
2022-08-21T09:49:13.548Z,77
2022-08-21T09:50:17.719Z,76
2022-08-21T09:51:24.904Z,76
2022-08-21T09:52:32.205Z,71
2022-08-21T09:53:36.488Z,61
2022-08-21T09:54:43.252Z,61
2022-08-21T09:55:47.828Z,56
2022-08-21T09:56:59.912Z,60
2022-08-21T09:58:12.793Z,57
2022-08-21T09:59:17.225Z,62
2022-08-21T10:00:23.164Z,61
2022-08-21T10:01:28.464Z,61
2022-08-21T10:02:33.017Z,63
2022-08-21T10:03:37.332Z,67
2022-08-21T10:04:41.544Z,66
2022-08-21T10:05:45.924Z,71
2022-08-21T10:07:00.713Z,72
2022-08-21T10:08:11.069Z,73
2022-08-21T10:09:21.737Z,76
2022-08-21T10:10:25.670Z,75
2022-08-21T10:11:35.432Z,77
2022-08-21T10:12:40.905Z,80
2022-08-21T10:13:50.242Z,77
2022-08-21T10:15:08.788Z,80
2022-08-21T10:16:17.668Z,79
2022-08-21T10:17:32.138Z,76
2022-08-21T10:18:39.012Z,72
2022-08-21T10:19:53.560Z,73
2022-08-21T10:20:58.016Z,74
2022-08-21T10:22:07.740Z,70
2022-08-21T10:23:17.948Z,77
2022-08-21T10:24:32.488Z,80
2022-08-21T10:25:40.117Z,76
2022-08-21T10:26:49.541Z,71
2022-08-21T10:29:08.036Z,82
2022-08-21T10:30:22.796Z,85
2022-08-21T10:31:37.241Z,80
2022-08-21T10:32:46.512Z,84
2022-08-21T10:33:56.032Z,71
2022-08-21T10:35:10.516Z,74
2022-08-21T10:36:15.256Z,76
2022-08-21T10:37:24.680Z,74
2022-08-21T10:38:50.763Z,72
2022-08-21T10:39:44.554Z,70
2022-08-21T10:40:56.728Z,70
2022-08-21T10:42:06.051Z,75
2022-08-21T10:43:23.223Z,76
2022-08-21T10:44:36.000Z,83
2022-08-21T10:45:48.444Z,81
2022-08-21T10:47:06.348Z,88
2022-08-21T10:48:10.904Z,76
2022-08-21T10:49:19.256Z,78
2022-08-21T10:50:31.658Z,78
2022-08-21T10:51:44.652Z,86
2022-08-21T10:52:59.488Z,87
2022-08-21T10:54:04.129Z,83
2022-08-21T10:55:18.713Z,83
2022-08-21T10:56:23.311Z,83
2022-08-21T10:57:32.230Z,83
2022-08-21T10:58:44.361Z,83
2022-08-21T10:59:47.392Z,83
2022-08-21T11:00:54.712Z,83
2022-08-21T11:02:07.092Z,83
2022-08-21T11:03:22.691Z,218
2022-08-21T11:04:49.052Z,191
2022-08-21T11:05:39.696Z,166
2022-08-21T11:06:50.354Z,164
2022-08-21T11:07:59.560Z,134
2022-08-21T11:09:07.736Z,134
2022-08-21T11:10:17.550Z,118
2022-08-21T11:11:24.984Z,103
2022-08-21T11:12:34.356Z,107
2022-08-21T11:13:46.775Z,99
2022-08-21T11:14:52.780Z,95
2022-08-21T11:15:59.903Z,93
2022-08-21T11:17:04.168Z,90
2022-08-21T11:18:12.416Z,90
2022-08-21T11:19:22.200Z,89
2022-08-21T11:20:31.654Z,89
2022-08-21T11:21:43.655Z,95
2022-08-21T11:22:58.884Z,85
2022-08-21T11:24:06.019Z,88
2022-08-21T11:25:18.339Z,73
2022-08-21T11:26:28.300Z,85
2022-08-21T11:27:37.683Z,79
2022-08-21T11:28:42.028Z,70
2022-08-21T11:29:46.320Z,70
2022-08-21T11:30:50.864Z,61
2022-08-21T11:32:03.701Z,76
2022-08-21T11:33:13.267Z,64
2022-08-21T11:34:20.735Z,68
2022-08-21T11:35:30.283Z,71
2022-08-21T11:36:46.631Z,71
2022-08-21T11:37:56.831Z,61
2022-08-21T11:39:06.452Z,71
2022-08-21T11:40:19.187Z,76
2022-08-21T11:41:26.246Z,72
2022-08-21T11:42:30.786Z,73
2022-08-21T11:43:40.711Z,66
2022-08-21T11:44:45.296Z,79
2022-08-21T11:45:54.767Z,79
2022-08-21T11:47:01.851Z,73
2022-08-21T11:48:11.098Z,77
2022-08-21T11:49:25.907Z,81
2022-08-21T11:50:36.481Z,78
2022-08-21T11:51:40.183Z,74
2022-08-21T11:52:55.988Z,81
2022-08-21T11:54:14.844Z,81
2022-08-21T11:55:29.371Z,87
2022-08-21T11:56:55.331Z,89
2022-08-21T11:57:59.855Z,90
2022-08-21T11:59:04.408Z,86
2022-08-21T12:00:08.963Z,87
2022-08-21T12:01:13.785Z,81
2022-08-21T12:02:18.362Z,89
2022-08-21T12:03:22.635Z,89
2022-08-21T12:04:32.803Z,134
2022-08-21T12:05:38.051Z,134
2022-08-21T12:06:47.320Z,134
2022-08-21T12:07:59.241Z,220
2022-08-21T12:09:07.928Z,177
2022-08-21T12:10:17.608Z,155
2022-08-21T12:11:30.785Z,144
2022-08-21T12:12:35.249Z,125
2022-08-21T12:13:40.813Z,107
2022-08-21T12:14:54.772Z,120
2022-08-21T12:16:07.147Z,105
2022-08-21T12:17:17.370Z,100
2022-08-21T12:18:29.487Z,91
2022-08-21T12:19:39.995Z,93
2022-08-21T12:20:50.079Z,91
2022-08-21T12:22:04.720Z,92
2022-08-21T12:23:16.175Z,88
2022-08-21T12:24:20.551Z,99
2022-08-21T12:25:29.923Z,89
2022-08-21T12:26:42.268Z,76
2022-08-21T12:27:49.619Z,69
2022-08-21T12:29:01.511Z,79
2022-08-21T12:30:10.895Z,76
2022-08-21T12:31:26.447Z,75
2022-08-21T12:32:40.963Z,78
2022-08-21T12:33:50.199Z,74
2022-08-21T12:34:57.311Z,70
2022-08-21T12:36:14.584Z,73
2022-08-21T12:37:21.932Z,77
2022-08-21T12:38:33.964Z,65
2022-08-21T12:39:44.108Z,66
2022-08-21T12:40:58.183Z,61
2022-08-21T12:42:09.469Z,58
2022-08-21T12:43:13.867Z,61
2022-08-21T12:44:23.367Z,63
2022-08-21T12:45:35.749Z,70
2022-08-21T12:46:40.923Z,65
2022-08-21T12:47:50.211Z,63
2022-08-21T12:49:02.299Z,64
2022-08-21T12:50:09.603Z,68
2022-08-21T12:51:14.080Z,64
2022-08-21T12:52:18.707Z,62
2022-08-21T12:53:25.455Z,64
2022-08-21T12:54:32.589Z,65
2022-08-21T12:55:39.859Z,58
2022-08-21T12:56:47.455Z,65
2022-08-21T12:58:02.632Z,65
2022-08-21T12:59:12.255Z,65
2022-08-21T13:00:32.530Z,52
2022-08-21T13:01:42.975Z,50
2022-08-21T13:02:50.267Z,52
2022-08-21T13:03:57.127Z,52
2022-08-21T13:05:04.860Z,36
2022-08-21T13:06:15.534Z,43
2022-08-21T13:07:30.847Z,47
2022-08-21T13:08:41.044Z,46
2022-08-21T13:09:53.563Z,47
2022-08-21T13:11:09.356Z,50
2022-08-21T13:12:37.611Z,59
2022-08-21T13:13:44.683Z,44
2022-08-21T13:14:49.382Z,53
2022-08-21T13:16:01.130Z,48
2022-08-21T13:17:16.483Z,48
2022-08-21T13:18:35.915Z,66
2022-08-21T13:19:42.413Z,51
2022-08-21T13:21:10.706Z,57
2022-08-21T13:22:31.057Z,55
2022-08-21T13:23:19.094Z,61
2022-08-21T13:24:48.744Z,50
2022-08-21T13:25:42.465Z,61
2022-08-21T13:26:47.829Z,62
2022-08-21T13:27:53.014Z,56
2022-08-21T13:29:02.578Z,57
2022-08-21T13:30:14.444Z,47
2022-08-21T13:31:26.386Z,56
2022-08-21T13:32:40.766Z,66
2022-08-21T13:33:54.814Z,58
2022-08-21T13:35:05.289Z,70
2022-08-21T13:36:10.905Z,58
2022-08-21T13:37:20.188Z,66
2022-08-21T13:38:29.517Z,70
2022-08-21T13:39:34.838Z,66
2022-08-21T13:40:44.542Z,75
2022-08-21T13:41:53.906Z,69
2022-08-21T13:43:03.340Z,72
2022-08-21T13:44:22.686Z,67
2022-08-21T13:45:31.893Z,65
2022-08-21T13:46:36.285Z,63
2022-08-21T13:47:41.010Z,66
2022-08-21T13:48:45.358Z,60
2022-08-21T13:49:49.626Z,68
2022-08-21T13:50:54.493Z,65
2022-08-21T13:51:59.122Z,52
2022-08-21T13:53:04.705Z,63
2022-08-21T13:54:24.029Z,56
2022-08-21T13:55:37.954Z,59
2022-08-21T13:56:42.317Z,65
2022-08-21T13:57:51.650Z,63
2022-08-21T13:59:01.102Z,61
2022-08-21T14:00:05.878Z,51
2022-08-21T14:03:00.384Z,52
2022-08-21T14:04:08.458Z,50
2022-08-21T14:05:35.570Z,53
2022-08-21T14:06:39.846Z,60
2022-08-21T14:07:44.558Z,57
2022-08-21T14:08:51.070Z,57
2022-08-21T14:10:00.288Z,60
2022-08-21T14:11:14.735Z,53
2022-08-21T14:12:24.962Z,62
2022-08-21T14:13:34.333Z,55
2022-08-21T14:14:43.375Z,53
2022-08-21T14:15:57.726Z,60
2022-08-21T14:18:38.798Z,60
2022-08-21T14:19:53.470Z,60
2022-08-21T14:20:57.966Z,54
2022-08-21T14:22:12.373Z,50
2022-08-21T14:23:26.826Z,48
2022-08-21T14:24:35.687Z,51
2022-08-21T14:25:40.844Z,49
2022-08-21T14:26:48.629Z,59
2022-08-21T14:27:56.833Z,52
2022-08-21T14:29:09.606Z,60
2022-08-21T14:30:14.730Z,59
2022-08-21T14:31:24.190Z,51
2022-08-21T14:32:28.534Z,70
2022-08-21T14:33:33.050Z,57
2022-08-21T14:34:37.461Z,59
2022-08-21T14:35:47.122Z,57
2022-08-21T14:36:52.781Z,61
2022-08-21T14:38:04.070Z,50
2022-08-21T14:39:20.742Z,54
2022-08-21T14:40:27.254Z,58
2022-08-21T14:41:46.614Z,57
2022-08-21T14:42:52.019Z,64
2022-08-21T14:45:46.682Z,63
2022-08-21T14:46:55.462Z,66
2022-08-21T14:48:21.425Z,65
2022-08-21T14:49:28.840Z,63
2022-08-21T14:50:33.866Z,63
2022-08-21T14:52:03.182Z,58
2022-08-21T14:53:13.601Z,60
2022-08-21T14:54:17.909Z,62
2022-08-21T14:55:27.265Z,65
2022-08-21T14:56:31.541Z,60
2022-08-21T14:57:42.798Z,55
2022-08-21T14:58:47.085Z,64
2022-08-21T15:00:09.377Z,61
2022-08-21T15:02:49.148Z,67
2022-08-21T15:03:53.181Z,64
2022-08-21T15:04:57.513Z,57
2022-08-21T15:06:02.777Z,64
2022-08-21T15:07:06.970Z,72
2022-08-21T15:08:11.233Z,71
2022-08-21T15:09:25.679Z,62
2022-08-21T15:10:29.995Z,66
2022-08-21T15:11:41.186Z,66
2022-08-21T15:12:42.005Z,66
2022-08-21T15:13:47.293Z,58
2022-08-21T15:14:51.809Z,61
2022-08-21T15:15:55.953Z,60
2022-08-21T15:17:00.069Z,57
2022-08-21T15:18:16.287Z,45
2022-08-21T15:19:23.701Z,54
2022-08-21T15:20:27.857Z,51
2022-08-21T15:21:32.065Z,41
2022-08-21T15:22:36.392Z,46
2022-08-21T15:23:46.593Z,44
2022-08-21T15:25:00.849Z,40
2022-08-21T15:26:05.344Z,32
2022-08-21T15:27:09.569Z,34
2022-08-21T15:28:40.866Z,30
2022-08-21T15:29:45.197Z,29
2022-08-21T15:30:51.793Z,33
2022-08-21T15:32:02.109Z,37
2022-08-21T15:33:16.317Z,40
2022-08-21T15:34:21.509Z,31
2022-08-21T15:35:45.845Z,44
2022-08-21T15:37:11.057Z,42
2022-08-21T15:38:36.228Z,43
2022-08-21T15:39:51.172Z,49
2022-08-21T15:40:53.822Z,46
2022-08-21T15:41:58.158Z,53
2022-08-21T15:43:03.213Z,53
2022-08-21T15:44:09.605Z,54
2022-08-21T15:45:14.289Z,52
2022-08-21T15:46:19.109Z,53
2022-08-21T15:47:23.394Z,55
2022-08-21T15:48:27.510Z,60
2022-08-21T15:49:51.705Z,55
2022-08-21T15:50:57.076Z,55
2022-08-21T15:52:08.277Z,54
2022-08-21T15:53:24.537Z,43
2022-08-21T15:54:28.738Z,44
2022-08-21T15:55:36.849Z,40
2022-08-21T15:56:41.070Z,36
2022-08-21T15:57:45.289Z,30
2022-08-21T15:58:49.544Z,34
2022-08-21T15:59:57.746Z,29
2022-08-21T16:01:02.099Z,34
2022-08-21T16:02:11.453Z,38
2022-08-21T16:03:15.837Z,25
2022-08-21T16:04:22.173Z,31
2022-08-21T16:05:47.585Z,37
2022-08-21T16:06:52.851Z,32
2022-08-21T16:07:57.169Z,30
2022-08-21T16:09:01.382Z,26
2022-08-21T16:10:07.586Z,38
2022-08-21T16:11:11.677Z,31
2022-08-21T16:12:15.958Z,35
2022-08-21T16:13:22.841Z,27
2022-08-21T16:14:26.942Z,29
2022-08-21T16:15:32.121Z,34
2022-08-21T16:16:36.797Z,37
2022-08-21T16:17:41.098Z,30
2022-08-21T16:18:45.529Z,38
2022-08-21T16:19:54.850Z,28
2022-08-21T16:21:09.090Z,25
2022-08-21T16:22:14.983Z,30
2022-08-21T16:23:20.045Z,33
2022-08-21T16:24:24.153Z,35
2022-08-21T16:25:28.417Z,30
2022-08-21T16:26:33.827Z,37
2022-08-21T16:27:37.285Z,33
2022-08-21T16:28:41.597Z,45
2022-08-21T16:29:46.117Z,40
2022-08-21T16:31:00.829Z,43
2022-08-21T16:32:10.202Z,36
2022-08-21T16:33:14.473Z,35
2022-08-21T16:34:27.606Z,35
2022-08-21T16:35:32.840Z,31
2022-08-21T16:36:43.005Z,32
2022-08-21T16:37:51.124Z,41
2022-08-21T16:38:52.777Z,35
2022-08-21T16:39:58.092Z,35
2022-08-21T16:41:08.301Z,45
2022-08-21T16:42:15.165Z,44
2022-08-21T16:43:19.485Z,33
2022-08-21T16:44:24.777Z,35
2022-08-21T16:45:32.978Z,45
2022-08-21T16:46:34.685Z,39
2022-08-21T16:47:54.085Z,45
2022-08-21T16:48:58.376Z,45
2022-08-21T16:50:06.777Z,40
2022-08-21T16:51:26.472Z,43
2022-08-21T16:52:40.729Z,40
2022-08-21T16:53:44.821Z,39
2022-08-21T16:55:03.923Z,31
2022-08-21T16:56:09.413Z,27
2022-08-21T16:57:22.705Z,32
2022-08-21T16:58:42.864Z,46
2022-08-21T16:59:47.253Z,33
2022-08-21T17:01:06.599Z,48
2022-08-21T17:02:10.721Z,41
2022-08-21T17:03:15.157Z,36
2022-08-21T17:04:19.577Z,39
2022-08-21T17:05:28.692Z,47
2022-08-21T17:06:35.052Z,33
2022-08-21T17:07:39.285Z,34
2022-08-21T17:08:43.712Z,25
2022-08-21T17:09:48.131Z,30
2022-08-21T17:10:58.521Z,41
2022-08-21T17:12:04.833Z,37
2022-08-21T17:13:10.216Z,28
2022-08-21T17:14:14.500Z,28
2022-08-21T17:15:21.783Z,32
2022-08-21T17:16:27.107Z,40
2022-08-21T17:17:41.505Z,42
2022-08-21T17:18:52.509Z,42
2022-08-21T17:19:55.227Z,42
2022-08-21T17:21:04.731Z,42
2022-08-21T17:22:08.923Z,44
2022-08-21T17:23:19.243Z,35
2022-08-21T17:24:23.743Z,41
2022-08-21T17:25:32.751Z,37
2022-08-21T17:26:38.087Z,34
2022-08-21T17:27:47.674Z,37
2022-08-21T17:28:54.963Z,34
2022-08-21T17:30:12.335Z,31
2022-08-21T17:31:26.839Z,34
2022-08-21T17:32:33.166Z,31
2022-08-21T17:33:37.496Z,49
2022-08-21T17:34:51.807Z,42
2022-08-21T17:35:57.089Z,37
2022-08-21T17:37:08.285Z,39
2022-08-21T17:38:14.623Z,29
2022-08-21T17:39:21.888Z,35
2022-08-21T17:40:21.710Z,33
2022-08-21T17:41:26.287Z,28
2022-08-21T17:42:30.923Z,31
2022-08-21T17:43:35.319Z,30
2022-08-21T17:44:40.762Z,38
2022-08-21T17:45:45.331Z,37
2022-08-21T17:46:50.790Z,40
2022-08-21T17:47:56.323Z,36
2022-08-21T17:49:00.773Z,41
2022-08-21T17:50:05.111Z,35
2022-08-21T17:51:11.181Z,34
2022-08-21T17:52:17.743Z,35
2022-08-21T17:53:24.099Z,35
2022-08-21T17:54:30.558Z,27
2022-08-21T17:55:37.947Z,26
2022-08-21T17:56:57.204Z,36
2022-08-21T17:58:01.660Z,33
2022-08-21T17:59:07.397Z,44
2022-08-21T18:00:14.784Z,31
2022-08-21T18:01:19.150Z,29
2022-08-21T18:02:24.826Z,25
2022-08-21T18:03:39.323Z,34
2022-08-21T18:04:43.632Z,29
2022-08-21T18:05:50.344Z,27
2022-08-21T18:06:54.771Z,26
2022-08-21T18:07:59.007Z,27
2022-08-21T18:09:03.363Z,30
2022-08-21T18:10:08.220Z,38
2022-08-21T18:11:18.083Z,43
2022-08-21T18:12:24.208Z,46
2022-08-21T18:13:28.716Z,39
2022-08-21T18:14:39.901Z,45
2022-08-21T18:15:44.468Z,49
2022-08-21T18:16:48.908Z,51
2022-08-21T18:17:53.890Z,46
2022-08-21T18:18:58.615Z,55
2022-08-21T18:20:03.244Z,46
2022-08-21T18:21:07.540Z,49
2022-08-21T18:22:23.417Z,45
2022-08-21T18:23:43.620Z,41
2022-08-21T18:24:38.316Z,46
2022-08-21T18:25:42.903Z,47
2022-08-21T18:26:47.309Z,50
2022-08-21T18:28:01.688Z,48
2022-08-21T18:29:06.183Z,53
2022-08-21T18:30:10.354Z,52
2022-08-21T18:31:20.089Z,48
2022-08-21T18:32:29.636Z,57
2022-08-21T18:33:31.553Z,48
2022-08-21T18:34:37.919Z,51
2022-08-21T18:35:42.793Z,45
2022-08-21T18:36:52.307Z,40
2022-08-21T18:38:06.724Z,44
2022-08-21T18:39:34.722Z,38
2022-08-21T18:40:17.624Z,42
2022-08-21T18:41:22.183Z,41
2022-08-21T18:42:34.256Z,34
2022-08-21T18:43:40.724Z,40
2022-08-21T18:44:47.519Z,46
2022-08-21T18:45:53.757Z,50
2022-08-21T18:47:06.659Z,38
2022-08-21T18:48:11.211Z,42
2022-08-21T18:49:15.635Z,26
2022-08-21T18:50:21.171Z,38
2022-08-21T18:53:18.059Z,25
2022-08-21T18:54:21.292Z,30
2022-08-21T18:55:27.354Z,28
2022-08-21T18:56:31.096Z,28
2022-08-21T18:57:56.727Z,32
2022-08-21T19:00:52.061Z,27
2022-08-21T19:01:57.620Z,38
2022-08-21T19:03:02.362Z,31
2022-08-21T19:04:06.367Z,31
2022-08-21T19:05:15.708Z,27
2022-08-21T19:06:20.289Z,25
2022-08-21T19:07:26.767Z,25
2022-08-21T19:08:32.247Z,30
2022-08-21T19:09:36.968Z,45
2022-08-21T19:10:42.704Z,42
2022-08-21T19:13:31.108Z,32
2022-08-21T19:14:35.464Z,51
2022-08-21T19:15:39.752Z,40
2022-08-21T19:16:46.943Z,50
2022-08-21T19:17:50.582Z,56
2022-08-21T19:18:52.967Z,48
2022-08-21T19:19:57.212Z,52
2022-08-21T19:21:01.790Z,58
2022-08-21T19:22:06.287Z,48
2022-08-21T19:23:15.851Z,54
2022-08-21T19:24:23.167Z,48
2022-08-21T19:25:33.127Z,40
2022-08-21T19:26:36.812Z,42
2022-08-21T19:27:51.328Z,43
2022-08-21T19:29:59.388Z,41
2022-08-21T19:31:10.172Z,41
2022-08-21T19:32:18.675Z,45
2022-08-21T19:33:44.242Z,41
2022-08-21T19:34:47.824Z,30
2022-08-21T19:36:07.473Z,37
2022-08-21T19:37:13.800Z,40
2022-08-21T19:38:18.512Z,31
2022-08-21T19:39:22.811Z,30
2022-08-21T19:41:03.056Z,46
2022-08-21T19:42:07.390Z,39
2022-08-21T19:43:12.080Z,25
2022-08-21T19:44:16.259Z,28
2022-08-21T19:45:21.232Z,29
2022-08-21T19:46:27.096Z,33
2022-08-21T19:47:41.554Z,46
2022-08-21T19:49:29.236Z,47
2022-08-21T19:50:35.612Z,47
2022-08-21T19:51:44.863Z,65
2022-08-21T19:53:14.955Z,57
2022-08-21T19:54:19.464Z,67
2022-08-21T19:55:39.648Z,63
2022-08-21T19:56:45.183Z,70
2022-08-21T19:58:30.316Z,69
2022-08-21T19:59:37.923Z,69
2022-08-21T20:00:43.977Z,73
2022-08-21T20:01:50.027Z,74
2022-08-21T20:03:16.112Z,84
2022-08-21T20:04:30.484Z,83
2022-08-21T20:05:47.967Z,78
2022-08-21T20:06:56.936Z,82
2022-08-21T20:08:02.272Z,77
2022-08-21T20:09:07.680Z,79
2022-08-21T20:10:11.491Z,71
2022-08-21T20:11:15.924Z,74
2022-08-21T20:12:32.600Z,78
2022-08-21T20:13:43.298Z,71
2022-08-21T20:15:04.244Z,72
2022-08-21T20:16:52.520Z,71
2022-08-21T20:17:56.324Z,65
2022-08-21T20:19:01.032Z,75
2022-08-21T20:20:05.482Z,67
2022-08-21T20:21:09.688Z,69
2022-08-21T20:22:16.331Z,66
2022-08-21T20:23:31.232Z,59
2022-08-21T20:24:35.604Z,59
2022-08-21T20:25:40.172Z,71
2022-08-21T20:27:08.532Z,79
2022-08-21T20:28:13.632Z,71
2022-08-21T20:30:23.652Z,70
2022-08-21T20:31:27.924Z,66
2022-08-21T20:32:34.216Z,73
2022-08-21T20:33:42.030Z,72
2022-08-21T20:34:46.384Z,71
2022-08-21T20:35:50.915Z,72
2022-08-21T20:37:22.334Z,80
2022-08-21T20:38:25.609Z,65
2022-08-21T20:39:36.957Z,66
2022-08-21T20:40:42.396Z,67
2022-08-21T20:41:52.938Z,72
2022-08-21T20:43:17.676Z,62
2022-08-21T20:44:22.079Z,75
2022-08-21T20:45:26.461Z,67
2022-08-21T20:48:23.601Z,61
2022-08-21T20:49:27.264Z,56
2022-08-21T20:50:36.952Z,62
2022-08-21T20:53:43.047Z,63
2022-08-21T20:54:49.000Z,57
2022-08-21T20:56:14.197Z,66
2022-08-21T20:57:17.147Z,59
2022-08-21T20:58:33.908Z,60
2022-08-21T20:59:38.292Z,69
2022-08-21T21:01:03.002Z,61
2022-08-21T21:03:46.272Z,66
2022-08-21T21:04:55.775Z,60
2022-08-21T21:06:05.128Z,62
2022-08-21T21:07:10.632Z,77
2022-08-21T21:08:25.305Z,69
2022-08-21T21:09:50.824Z,72
2022-08-21T21:11:00.276Z,78
2022-08-21T21:12:14.672Z,71
2022-08-21T21:13:24.280Z,75
2022-08-21T21:14:31.452Z,76
2022-08-21T21:15:52.704Z,84
2022-08-21T21:16:57.272Z,86
2022-08-21T21:18:01.700Z,78
2022-08-21T21:19:11.208Z,89
2022-08-21T21:20:20.732Z,87
2022-08-21T21:21:35.953Z,80
2022-08-21T21:23:00.709Z,84
2022-08-21T21:24:09.860Z,84
2022-08-21T21:26:29.495Z,85
2022-08-21T21:27:49.045Z,81
2022-08-21T21:29:09.985Z,80
2022-08-21T21:30:20.870Z,80
2022-08-21T21:31:43.791Z,82
2022-08-21T21:32:58.770Z,80
2022-08-21T21:34:04.216Z,82
2022-08-21T21:35:08.420Z,75
2022-08-21T21:36:13.940Z,77
2022-08-21T21:37:40.391Z,78
2022-08-21T21:38:53.976Z,81
2022-08-21T21:40:03.355Z,73
2022-08-21T21:41:18.499Z,73
2022-08-21T21:42:33.916Z,74
2022-08-21T21:43:57.026Z,67
2022-08-21T21:45:07.436Z,73
2022-08-21T21:46:17.719Z,70
2022-08-21T21:47:32.176Z,71
2022-08-21T21:48:41.735Z,82
2022-08-21T21:50:05.183Z,74
2022-08-21T21:51:14.769Z,79
2022-08-21T21:52:23.247Z,79
2022-08-21T21:53:38.727Z,76
2022-08-21T21:54:47.912Z,71
2022-08-21T21:55:59.168Z,69
2022-08-21T21:57:14.039Z,68
2022-08-21T21:58:47.831Z,73
2022-08-21T22:00:00.162Z,68
2022-08-21T22:01:19.824Z,78
2022-08-21T22:04:20.832Z,78
2022-08-21T22:05:28.643Z,92
2022-08-21T22:06:39.563Z,86
2022-08-21T22:07:55.727Z,91
2022-08-21T22:09:11.258Z,85
2022-08-21T22:10:30.429Z,97
2022-08-21T22:11:47.931Z,93
2022-08-21T22:13:23.521Z,96
2022-08-21T22:14:28.127Z,101
2022-08-21T22:15:32.468Z,101
2022-08-21T22:17:03.292Z,99
2022-08-21T22:20:04.190Z,108
2022-08-21T22:21:08.567Z,108
2022-08-21T22:22:15.967Z,103
2022-08-21T22:23:20.175Z,105
2022-08-21T22:24:27.530Z,107
2022-08-21T22:25:33.035Z,124
2022-08-21T22:26:37.513Z,115
2022-08-21T22:27:59.056Z,121
2022-08-21T22:29:24.959Z,113
2022-08-21T22:30:40.234Z,127
2022-08-21T22:31:43.183Z,115
2022-08-21T22:32:58.079Z,115
2022-08-21T22:34:07.207Z,113
2022-08-21T22:35:12.452Z,118
2022-08-21T22:36:23.459Z,108
2022-08-21T22:37:27.688Z,110
2022-08-21T22:38:48.123Z,118
2022-08-21T22:39:52.401Z,116
2022-08-21T22:40:56.560Z,118
2022-08-21T22:42:11.350Z,116
2022-08-21T22:43:15.591Z,117
2022-08-21T22:44:19.847Z,114
2022-08-21T22:45:24.517Z,120
2022-08-21T22:46:28.776Z,118
2022-08-21T22:47:41.096Z,116
2022-08-21T22:50:56.103Z,115
2022-08-21T22:52:03.295Z,105
2022-08-21T22:53:15.771Z,118
2022-08-21T22:54:24.971Z,107
2022-08-21T22:55:49.540Z,115
2022-08-21T22:56:53.823Z,105
2022-08-21T22:57:58.311Z,109
2022-08-21T22:59:10.402Z,107